Huvudsida
METAR-TAF:

METAR-TAF

Flygplatser :

Kuwaits internationella flygplats

Kuwait, Kuwait

latitud: 29-13N, longitud: 047-59E, höjd: 55 m

Aktuellt väderrapport

Denna rapport gjordes för 17 minuter sedan, klockan 21:00 UTC
Stilla vind
Temperatur 14°C
Fuktighet 88%
Tryck 1019 hPa
Sikt: 6000 m

METAR: OKBK 142100Z 00000KT 6000 NSC 14/12 Q1019 NOSIG

Tid: 00:17 (21:17 UTC)

Väderprognos

Denna rapport gjordes för 4 timmar och 32 minuter sedan, klockan 16:45 UTC
Prognos gäller från 14 kl. 18 UTC till 15 kl. 24 UTC
Vind 3 kt varierande vindriktning
Sikt: 7000 m
Temporärt
från 14 kl. 21 UTC till 15 kl. 04 UTC
Sikt: 3000 m
fuktdis

TAF: OKBK 141645Z 1418/1524 VRB03KT 7000 NSC TEMPO 1421/1504 3000 BR

Aktuella väderrapporter och prognoser från 4000 flygplatser (METAR- och TAF-rapporter).

De tillgängliga stationerna syns som gula och röda prickar på kartan.

För musen över prickarna för att se namnen på stationerna.

Klicka sedan för att få väderrapporter och prognoser.

För att ändra kartan: Klicka på de gröna knapparna med ett svart kors på för att zooma in; den gröna knappen med ett streck på för att zooma ut; eller på de gröna pilarna för angränsande kartor.


METAR-TAF: